Émile Meunier

Olheiro - RC Lens
3 Dez 2028
Domingo
Processo

Personalidade

Adaptabilidade (14) Ambição (8) Controvérsia (9) Lealdade (11) Pressão (10) Profissionalismo (3) Espírito Esportivo (7) Temperamento (1)

Perfil

Estilo de Treinamento Democrático
Licença Nacional A
Determinação 8
Gestão de Pessoas 5
Motivação 10
Disciplina 7
Satisfação no Trabalho
100%
Fadiga
0%
Função Olheiro
Salário 27.6K p/s
Contrato 14.03.2029

Desempenho

Comportamento Bom
Eficácia do Treinamento
54%
Desenvolvimento do Jogador
70%
Prevenção de Lesões
45%
Implementação Tática
75%

Eventos Recentes

Participou de uma reunião de recrutamento agora
Recomendou um alvo de transferência agora
Participou de uma reunião de recrutamento 7d atrás
Recomendou um alvo de transferência 7d atrás
Recomendou um alvo de transferência 7d atrás
Recomendou um alvo de transferência 7d atrás
Recomendou um alvo de transferência 14d atrás
Recomendou um alvo de transferência 14d atrás

Monitorando agora

81
Jogador Clube Status Habilidade Confiança Observado Última observação Último voto
Ilzat Akhmetov FC Nantes Ativo 130 / 125 72% 1 21.08.2028 Aprovar
Hamza Igamane LOSC Lille Perdido 147 / 150 72% 1 26.06.2028 -
Théodore Lefèvre Tours Ativo 136 / 144 72% 1 06.06.2028 Aprovar
Kamory Doumbia Stade Brestois Ativo 136 / 147 72% 1 10.01.2028 Aprovar
Chemsdine Talbi Sunderland Ativo 149 / 145 40% 6 30.05.2027 -
Samuel Edozie Southampton Ativo 127 / 128 40% 1 30.05.2027 -
Tiago Santos LOSC Lille Ativo 150 / 145 40% 4 28.05.2027 -
Jarrad Branthwaite Everton Ativo 149 / 158 40% 4 28.05.2027 -
Tyler Morton Olympique Lyonnais Ativo 138 / 150 40% 2 28.05.2027 -
Ian Maatsen Aston Villa Ativo 149 / 149 40% 2 27.05.2027 -
James Garner Everton Ativo 146 / 151 40% 3 27.05.2027 -
Sven Botman Newcastle United Ativo 165 / 157 40% 3 25.05.2027 -
Quinten Timber Crystal Palace Ativo 151 / 153 40% 3 25.05.2027 -
Manu Koné AS Roma Ativo 168 / 158 40% 3 22.05.2027 -
Ryan Sessegnon Fulham Ativo 150 / 144 40% 2 22.05.2027 -
Savinho Tottenham Ativo 162 / 160 40% 4 21.05.2027 -
Malick Fofana Sunderland Ativo 145 / 148 40% 1 21.05.2027 -
Ngal'Ayel Mukau LOSC Lille Ativo 144 / 147 40% 1 20.05.2027 -
Curtis Jones Inter Ativo 153 / 154 40% 1 20.05.2027 -
Andre Brooks Sheffield United Ativo 134 / 125 40% 1 18.05.2027 -
Carlos Forbs Club Brugge Ativo 128 / 136 40% 5 17.05.2027 -
Tristan Degreef Anderlecht Ativo 126 / 131 40% 3 17.05.2027 -
Jan Virgili Club Brugge Ativo 126 / 140 40% 4 17.05.2027 -
Brooke Norton-Cuffy Hull City Ativo 130 / 134 40% 1 15.05.2027 -
Fábio Carvalho Brentford Ativo 138 / 135 40% 1 15.05.2027 -
Martin Baturina Como Ativo 147 / 142 40% 1 15.05.2027 -
Kevin Fulham Ativo 149 / 146 40% 5 14.05.2027 -
Shea Charles Southampton Ativo 139 / 141 40% 1 14.05.2027 -
Boubacar Kamara Aston Villa Ativo 167 / 164 40% 4 10.05.2027 -
Alex Scott Bournemouth Ativo 149 / 152 40% 3 10.05.2027 -
Yehor Yarmoliuk Brentford Ativo 145 / 148 40% 1 09.05.2027 -
Adam Wharton Crystal Palace Ativo 157 / 158 40% 1 09.05.2027 -
Rodrigo Gomes Wolverhampton Ativo 143 / 140 40% 2 08.05.2027 -
Tino Livramento Newcastle United Ativo 153 / 158 40% 4 06.05.2027 -
Yeremy Pino Crystal Palace Ativo 156 / 146 40% 4 06.05.2027 -
Xavi Simons Tottenham Ativo 159 / 153 40% 5 06.05.2027 -
Roberto Fernández Braga Ativo 145 / 142 40% 6 05.05.2027 -
Bongani Zungu Ajax Cape Town Ativo 137 / 130 40% 1 04.05.2027 -
Jacob Greaves Ipswich Town Ativo 136 / 132 40% 3 03.05.2027 -
Ousmane Diomande Nottingham Forest Ativo 159 / 158 40% 2 03.05.2027 -
Wesley Fofana Chelsea Ativo 168 / 164 40% 1 02.05.2027 -
Dehmaine Tabibou FC Nantes Ativo 118 / 130 40% 2 30.04.2027 -
Pedro Porro Tottenham Ativo 154 / 151 40% 4 29.04.2027 -
Levi Colwill Chelsea Ativo 158 / 155 40% 2 29.04.2027 -
Óscar Mingueza Crystal Palace Ativo 152 / 150 40% 1 29.04.2027 -
André Wolverhampton Ativo 140 / 148 40% 3 24.04.2027 -
Florentino Luís Ipswich Town Ativo 139 / 143 40% 3 21.04.2027 -
Juanlu Bournemouth Ativo 146 / 149 40% 1 21.04.2027 -
Lewis Hall Newcastle United Ativo 150 / 152 40% 2 20.04.2027 -
Mario Stroeykens Anderlecht Ativo 130 / 133 40% 1 20.04.2027 -
Hákon Arnar Haraldsson LOSC Lille Ativo 154 / 142 40% 3 18.04.2027 -
Vanderson Monaco Ativo 147 / 148 40% 2 14.04.2027 -
Amadou Onana Aston Villa Ativo 160 / 157 40% 2 13.04.2027 -
Evan N'Dicka AS Roma Ativo 150 / 151 40% 2 13.04.2027 -
Aimé Omgba KAA Gent Ativo 125 / 122 40% 2 13.04.2027 -
Ilay Camara Anderlecht Ativo 135 / 130 40% 5 06.04.2027 -
Alexsandro Ribeiro LOSC Lille Ativo 154 / 142 40% 2 04.04.2027 -
Jake O'Brien Everton Ativo 143 / 143 40% 1 04.04.2027 -
Juan Bezerra Zamalek Ativo 124 / 125 40% 1 01.04.2027 -
Quentin Merlin Stade Rennais Ativo 128 / 136 40% 1 30.03.2027 -
Aaron Hickey Brentford Ativo 142 / 145 40% 1 29.03.2027 -
Matteo Dams Club Brugge Ativo 136 / 129 40% 1 27.03.2027 -
Mohamed-Ali Cho Hull City Ativo 136 / 131 40% 1 27.03.2027 -
Maxence Lacroix Chelsea Ativo 145 / 150 40% 1 25.03.2027 -
Mats Wieffer Brighton Ativo 153 / 151 40% 1 20.03.2027 -
Freddie Potts Club Brugge Ativo 127 / 132 40% 1 15.03.2027 -
Bradley Locko Stade Brestois Ativo 135 / 132 40% 1 12.03.2027 -
Moisés Caicedo Chelsea Ativo 171 / 168 40% 1 09.03.2027 -
Thiago Brentford Ativo 144 / 143 40% 1 28.12.2026 -
Nicolò Tresoldi Club Brugge Ativo 129 / 130 40% 1 25.12.2026 -
Giacomo Raspadori Atalanta Ativo 152 / 146 40% 1 12.12.2026 -
Wilson Isidor Sunderland Ativo 138 / 134 40% 2 07.12.2026 -
Rodrigo Muniz Fulham Ativo 144 / 134 40% 1 06.12.2026 -
Nicolas Jackson Aston Villa Ativo 154 / 147 40% 2 28.11.2026 -
Tyrese Campbell Sheffield United Ativo 132 / 126 40% 1 28.11.2026 -
Yousef Salech Cardiff City Ativo 130 / 128 40% 1 21.11.2026 -
João Pedro Chelsea Ativo 150 / 150 40% 1 18.11.2026 -
Emanuel Emegha Chelsea Ativo 147 / 142 40% 1 08.11.2026 -
Pau Víctor Braga Ativo 142 / 136 40% 2 06.11.2026 -
Chukwubuikem Ikwuemesi OH Leuven Ativo 118 / 120 40% 2 06.11.2026 -
Noussair Mazraoui Manchester United Ativo 157 / 145 40% 1 01.08.2026 -